This is the latest recevied weather packets stored in our database for station/object OK2ILA-10. If no packets are shown the sender has not sent any weather packets the latest 10 day(s).
| Time | Temp. | Humidity | Pressure | Rain* | Wind** | Luminosity | Snow |
|---|---|---|---|---|---|---|---|
| 1788513121 | 23.33° C | 56% | 1018.5 hPa | - | - | - | - |
| 1788513117 | 23.33° C | 56% | 1018.5 hPa | - | - | - | - |
| 1788512520 | 23.33° C | 55% | 1018.7 hPa | - | - | - | - |
| 1788512516 | 23.33° C | 55% | 1018.7 hPa | - | - | - | - |
| 1788511920 | 23.33° C | 55% | 1018.8 hPa | - | - | - | - |
| 1788511916 | 23.33° C | 55% | 1018.8 hPa | - | - | - | - |
| 1788511320 | 22.78° C | 56% | 1018.7 hPa | - | - | - | - |
| 1788511316 | 22.78° C | 56% | 1018.7 hPa | - | - | - | - |
| 1788510727 | 22.22° C | 58% | 1018.8 hPa | - | - | - | - |
| 1788510716 | 22.22° C | 58% | 1018.8 hPa | - | - | - | - |
| 1788510120 | 21.67° C | 58% | 1019 hPa | - | - | - | - |
| 1788510116 | 21.67° C | 58% | 1019 hPa | - | - | - | - |
| 1788509515 | 23.33° C | 54% | 1019.1 hPa | - | - | - | - |
| 1788508919 | 23.89° C | 54% | 1019.1 hPa | - | - | - | - |
| 1788508915 | 23.89° C | 54% | 1019.1 hPa | - | - | - | - |
| 1788508319 | 22.22° C | 58% | 1019.3 hPa | - | - | - | - |
| 1788508315 | 22.22° C | 58% | 1019.3 hPa | - | - | - | - |
| 1788507715 | 21.67° C | 58% | 1019 hPa | - | - | - | - |
| 1788507119 | 22.22° C | 59% | 1019 hPa | - | - | - | - |
| 1788507115 | 22.22° C | 59% | 1019 hPa | - | - | - | - |
| 1788506519 | 21.11° C | 61% | 1018.9 hPa | - | - | - | - |
| 1788506514 | 21.11° C | 61% | 1018.9 hPa | - | - | - | - |
| 1788505914 | 20° C | 63% | 1019.1 hPa | - | - | - | - |
| 1788505314 | 20° C | 62% | 1019.1 hPa | - | - | - | - |
| 1788504726 | 20° C | 62% | 1019.2 hPa | - | - | - | - |
* Rain since midnight (hover to see other rain measurements)
** Current wind speed in m/s (hover to see current wind gust speed)